Time;durP1;ratioP1;P1;durP2;ratioP2;P2;SDS_P1;SDS_P2;PMS_P1;PMS_P2;Temp;Humidity;BMP_temperature;BMP_pressure;BME280_temperature;BME280_humidity;BME280_pressure;Samples;Min_cycle;Max_cycle;Signal;HPM_P1;HPM_P2
2022/03/30 00:01:10;;;;;;;8.93;5.82;;;14.60;72.00;;;;;;5089953;28;20111;-81
2022/03/30 00:03:35;;;;;;;9.98;5.82;;;14.70;72.00;;;;;;5090505;28;20107;-76
2022/03/30 00:06:03;;;;;;;9.15;6.10;;;14.70;72.10;;;;;;5090245;28;20028;-75
2022/03/30 00:08:28;;;;;;;8.88;6.10;;;14.70;72.00;;;;;;5090010;28;20031;-76
2022/03/30 00:10:54;;;;;;;10.27;6.25;;;14.70;72.00;;;;;;5089533;28;20027;-76
2022/03/30 00:13:19;;;;;;;10.38;5.93;;;14.60;72.00;;;;;;5090008;28;20498;-76
2022/03/30 00:15:45;;;;;;;8.98;5.97;;;14.70;72.10;;;;;;5090115;28;20099;-75
2022/03/30 00:18:10;;;;;;;8.90;5.90;;;14.60;72.00;;;;;;5089550;28;20066;-77
2022/03/30 00:20:36;;;;;;;8.65;5.53;;;14.60;72.00;;;;;;5071359;28;20024;-80
2022/03/30 00:23:02;;;;;;;8.98;5.65;;;14.60;72.00;;;;;;5070554;28;20032;-79
2022/03/30 00:25:28;;;;;;;8.82;5.72;;;14.60;72.00;;;;;;5071696;28;20418;-77
2022/03/30 00:27:53;;;;;;;9.10;5.63;;;14.60;72.00;;;;;;5089355;28;20038;-77
2022/03/30 00:30:21;;;;;;;10.15;6.43;;;14.60;72.00;;;;;;5071500;28;20032;-77
2022/03/30 00:32:47;;;;;;;9.38;5.93;;;14.60;72.00;;;;;;5089887;28;20024;-76
2022/03/30 00:35:13;;;;;;;9.00;5.80;;;14.60;72.00;;;;;;5071743;28;20085;-77
2022/03/30 00:37:41;;;;;;;8.52;5.63;;;14.60;72.00;;;;;;5089519;28;20110;-76
2022/03/30 00:40:09;;;;;;;10.07;6.25;;;14.60;72.00;;;;;;5069272;28;20048;-75
2022/03/30 00:42:35;;;;;;;8.60;5.93;;;14.60;72.00;;;;;;5069332;28;20020;-74
2022/03/30 00:45:11;;;;;;;8.88;5.85;;;14.60;72.00;;;;;;5088170;28;20026;-74
2022/03/30 00:47:37;;;;;;;9.13;6.07;;;14.60;72.00;;;;;;5089170;28;20680;-75
2022/03/30 00:50:05;;;;;;;9.10;6.00;;;14.60;72.00;;;;;;5071084;28;20119;-74
2022/03/30 00:52:31;;;;;;;9.23;5.95;;;14.60;72.00;;;;;;5089347;28;20020;-75
2022/03/30 00:54:57;;;;;;;8.80;5.70;;;14.60;72.10;;;;;;5071387;28;20078;-74
2022/03/30 00:57:23;;;;;;;9.00;5.53;;;14.60;72.10;;;;;;5070553;28;20038;-75
2022/03/30 00:59:50;;;;;;;8.80;5.65;;;14.60;72.10;;;;;;5089203;28;20020;-74
2022/03/30 01:02:16;;;;;;;8.85;5.88;;;14.60;72.00;;;;;;5088767;28;20028;-73
2022/03/30 01:04:44;;;;;;;9.77;5.95;;;14.60;72.00;;;;;;5070744;28;20074;-74
2022/03/30 01:07:10;;;;;;;9.15;5.90;;;14.60;72.00;;;;;;5088754;28;20032;-75
2022/03/30 01:09:35;;;;;;;9.82;6.20;;;14.60;72.10;;;;;;5089231;28;20384;-74
2022/03/30 01:12:01;;;;;;;9.98;6.07;;;14.60;72.10;;;;;;5070678;28;20031;-75
2022/03/30 01:14:27;;;;;;;9.07;5.80;;;14.60;72.00;;;;;;5089243;28;20557;-75
2022/03/30 01:16:53;;;;;;;10.02;6.00;;;14.60;72.00;;;;;;5088199;28;20032;-74
2022/03/30 01:19:20;;;;;;;9.77;5.85;;;14.60;72.00;;;;;;5070750;28;20070;-74
2022/03/30 01:21:46;;;;;;;10.63;6.20;;;14.60;72.00;;;;;;5088872;28;20012;-74
2022/03/30 01:24:12;;;;;;;8.48;5.57;;;14.60;72.00;;;;;;5070917;28;20439;-73
2022/03/30 01:26:39;;;;;;;9.50;5.72;;;14.60;72.10;;;;;;5088561;28;20486;-74
2022/03/30 01:32:25;;;;;;;8.75;5.65;;;14.50;72.10;;;;;;5070296;28;20123;-73
2022/03/30 01:34:35;;;;;;;9.45;5.88;;;14.50;72.00;;;;;;5068670;28;20157;-76
2022/03/30 01:37:03;;;;;;;9.15;5.65;;;14.60;72.10;;;;;;5069914;28;20059;-74
2022/03/30 01:39:29;;;;;;;8.80;5.63;;;14.50;72.00;;;;;;5070353;28;20490;-75
2022/03/30 01:41:54;;;;;;;9.52;6.20;;;14.60;72.00;;;;;;5088718;28;20020;-78
2022/03/30 01:44:20;;;;;;;8.20;5.68;;;14.60;72.10;;;;;;5070315;28;20024;-73
2022/03/30 01:46:45;;;;;;;9.50;5.55;;;14.60;72.10;;;;;;5086628;28;20081;-76
2022/03/30 01:49:11;;;;;;;9.30;5.85;;;14.50;72.00;;;;;;5088485;28;20024;-77
2022/03/30 01:51:36;;;;;;;8.98;5.53;;;14.60;72.10;;;;;;5088519;28;20537;-75
2022/03/30 01:54:02;;;;;;;9.02;5.90;;;14.50;72.10;;;;;;5088430;28;20107;-75
2022/03/30 01:56:27;;;;;;;9.60;6.22;;;14.50;72.10;;;;;;5088208;28;20031;-75
2022/03/30 01:58:53;;;;;;;8.73;5.93;;;14.50;72.20;;;;;;5088351;28;20031;-76
2022/03/30 02:01:18;;;;;;;9.13;5.68;;;14.50;72.10;;;;;;5088340;28;20020;-76
2022/03/30 02:03:44;;;;;;;9.60;5.97;;;14.50;72.10;;;;;;5070452;28;20406;-76
2022/03/30 02:06:12;;;;;;;10.18;5.97;;;14.50;72.20;;;;;;5070311;28;20017;-74
2022/03/30 02:08:38;;;;;;;9.45;6.22;;;14.50;72.20;;;;;;5070244;28;20034;-80
2022/03/30 02:11:04;;;;;;;8.73;5.90;;;14.50;72.10;;;;;;5088349;28;20031;-74
2022/03/30 02:13:29;;;;;;;8.75;5.63;;;14.50;72.10;;;;;;5070336;28;20024;-76
2022/03/30 02:15:54;;;;;;;8.73;5.65;;;14.50;72.70;;;;;;5092023;28;20113;-74
2022/03/30 02:18:20;;;;;;;9.13;5.68;;;14.50;72.20;;;;;;5091991;28;20035;-74
2022/03/30 02:20:45;;;;;;;8.02;5.22;;;14.50;72.20;;;;;;5092223;28;20028;-74
2022/03/30 02:23:11;;;;;;;8.70;5.22;;;14.50;72.10;;;;;;5092629;28;20035;-75
2022/03/30 02:25:36;;;;;;;8.88;5.80;;;14.50;72.20;;;;;;5091882;28;20064;-79
2022/03/30 02:28:03;;;;;;;10.02;6.05;;;14.50;72.20;;;;;;5091964;28;20107;-74
2022/03/30 02:30:29;;;;;;;9.25;5.93;;;14.50;72.20;;;;;;5073703;28;20035;-78
2022/03/30 02:32:55;;;;;;;9.63;5.68;;;14.50;72.30;;;;;;5073600;28;20027;-74
2022/03/30 02:35:21;;;;;;;9.20;5.45;;;14.50;72.20;;;;;;5091984;28;20036;-74
2022/03/30 02:37:46;;;;;;;8.30;5.60;;;14.50;72.10;;;;;;5073765;28;20110;-75
2022/03/30 02:40:12;;;;;;;9.77;5.75;;;14.50;72.30;;;;;;5071771;28;20506;-76
2022/03/30 02:42:37;;;;;;;8.10;5.22;;;14.50;72.30;;;;;;5091844;28;20449;-74
2022/03/30 02:45:04;;;;;;;9.35;5.47;;;14.50;72.20;;;;;;5073210;28;20016;-74
2022/03/30 02:50:13;;;;;;;8.88;5.57;;;14.50;72.30;;;;;;5092112;28;20593;-76
2022/03/30 02:52:39;;;;;;;9.35;5.75;;;14.50;72.30;;;;;;5091458;28;20039;-74
2022/03/30 02:55:06;;;;;;;8.75;5.70;;;14.50;72.20;;;;;;5073486;28;20074;-74
2022/03/30 02:57:31;;;;;;;8.40;5.55;;;14.50;72.30;;;;;;5073084;28;20031;-75
2022/03/30 02:59:57;;;;;;;9.52;5.65;;;14.50;72.30;;;;;;5091383;28;20034;-74
2022/03/30 03:02:22;;;;;;;9.05;5.53;;;14.50;72.40;;;;;;5091222;28;20032;-73
2022/03/30 03:04:48;;;;;;;9.25;5.95;;;14.50;72.30;;;;;;5091586;28;20016;-74
2022/03/30 03:07:14;;;;;;;8.48;5.40;;;14.50;72.30;;;;;;5072773;28;20070;-78
2022/03/30 03:09:40;;;;;;;9.18;5.78;;;14.50;72.40;;;;;;5091674;28;20103;-73
2022/03/30 03:12:05;;;;;;;9.15;6.03;;;14.50;72.30;;;;;;5091209;28;20119;-76
2022/03/30 03:14:31;;;;;;;8.40;5.80;;;14.50;72.30;;;;;;5090982;28;20055;-74
2022/03/30 03:16:56;;;;;;;9.68;5.80;;;14.50;72.30;;;;;;5072482;28;20039;-73
2022/03/30 03:19:23;;;;;;;9.07;5.50;;;14.50;72.30;;;;;;5072471;28;20461;-76
2022/03/30 03:21:49;;;;;;;7.90;5.47;;;14.50;72.30;;;;;;5072650;28;20016;-76
2022/03/30 03:24:14;;;;;;;7.80;5.07;;;14.50;72.30;;;;;;5090922;28;20103;-76
2022/03/30 03:26:40;;;;;;;8.55;5.65;;;14.50;72.30;;;;;;5090131;28;20474;-75
2022/03/30 03:29:05;;;;;;;9.10;5.60;;;14.50;72.30;;;;;;5090758;28;20024;-74
2022/03/30 03:31:31;;;;;;;9.00;5.55;;;14.50;72.40;;;;;;5090868;28;20047;-74
2022/03/30 03:33:56;;;;;;;8.55;5.70;;;14.50;72.40;;;;;;5072673;28;20024;-74
2022/03/30 03:36:22;;;;;;;8.77;5.53;;;14.40;72.80;;;;;;5072315;28;20076;-73
2022/03/30 03:38:47;;;;;;;9.50;5.78;;;14.50;72.20;;;;;;5090458;28;20032;-75
2022/03/30 03:41:13;;;;;;;8.57;5.45;;;14.50;72.40;;;;;;5072432;28;20020;-74
2022/03/30 03:43:38;;;;;;;8.40;5.43;;;14.40;72.30;;;;;;5072394;28;20027;-74
2022/03/30 03:46:04;;;;;;;8.68;5.40;;;14.40;72.30;;;;;;5090335;28;20033;-74
2022/03/30 03:48:30;;;;;;;8.38;5.57;;;14.50;72.20;;;;;;5088845;28;20039;-76
2022/03/30 03:50:56;;;;;;;8.52;5.57;;;14.50;72.30;;;;;;5090683;28;20032;-75
2022/03/30 03:53:21;;;;;;;9.18;5.82;;;14.50;72.30;;;;;;5072021;28;20038;-75
2022/03/30 03:55:47;;;;;;;8.60;5.63;;;14.40;72.30;;;;;;5090372;28;20546;-74
2022/03/30 03:58:13;;;;;;;8.55;5.40;;;14.40;72.20;;;;;;5072193;28;20115;-74
2022/03/30 04:00:38;;;;;;;9.00;5.47;;;14.40;72.20;;;;;;5089990;28;20009;-74
2022/03/30 04:03:04;;;;;;;9.15;5.78;;;14.40;72.30;;;;;;5072222;28;20020;-74
2022/03/30 04:05:29;;;;;;;7.97;5.22;;;14.40;72.20;;;;;;5090023;28;20023;-74
2022/03/30 04:07:55;;;;;;;8.68;5.82;;;14.40;72.20;;;;;;5089882;28;20055;-77
2022/03/30 04:10:21;;;;;;;9.02;5.65;;;14.40;72.20;;;;;;5089879;28;20032;-74
2022/03/30 04:12:46;;;;;;;10.05;6.35;;;14.40;72.20;;;;;;5090121;28;20019;-75
2022/03/30 04:15:12;;;;;;;8.45;5.85;;;14.40;72.30;;;;;;5089977;28;20032;-78
2022/03/30 04:17:43;;;;;;;8.48;5.60;;;14.40;72.30;;;;;;5071622;28;20024;-75
2022/03/30 04:20:10;;;;;;;8.40;5.65;;;14.40;72.20;;;;;;5089771;28;20079;-75
2022/03/30 04:22:35;;;;;;;8.65;5.88;;;14.40;72.20;;;;;;5089012;28;20089;-74
2022/03/30 04:25:01;;;;;;;8.18;5.65;;;14.40;72.20;;;;;;5091162;28;20433;-74
2022/03/30 04:27:26;;;;;;;9.05;5.70;;;14.40;72.30;;;;;;5091414;28;20111;-74
2022/03/30 04:29:52;;;;;;;9.18;5.63;;;14.40;72.20;;;;;;5091561;28;20480;-73
2022/03/30 04:32:17;;;;;;;9.88;6.18;;;14.40;72.30;;;;;;5091376;28;20103;-75
2022/03/30 04:34:42;;;;;;;8.82;5.88;;;14.40;72.30;;;;;;5073021;28;20504;-73
2022/03/30 04:37:08;;;;;;;8.93;5.97;;;14.40;72.20;;;;;;5072598;28;20499;-73
2022/03/30 04:39:34;;;;;;;7.93;5.30;;;14.40;72.20;;;;;;5086818;28;20020;-73
2022/03/30 04:42:00;;;;;;;8.80;5.45;;;14.40;72.20;;;;;;5066569;28;20028;-77
2022/03/30 04:44:25;;;;;;;8.75;5.82;;;14.40;72.20;;;;;;5081304;28;20510;-74
2022/03/30 04:46:51;;;;;;;8.35;5.97;;;14.40;72.30;;;;;;5091083;28;20028;-74
2022/03/30 04:49:17;;;;;;;7.97;5.60;;;14.40;72.20;;;;;;5090841;28;20039;-74
2022/03/30 04:51:42;;;;;;;8.88;5.85;;;14.40;72.20;;;;;;5066317;28;20063;-74
2022/03/30 04:54:08;;;;;;;9.07;5.65;;;14.40;72.20;;;;;;5090908;28;20035;-78
2022/03/30 04:56:34;;;;;;;9.18;6.03;;;14.40;72.20;;;;;;5089498;28;20082;-75
2022/03/30 04:58:59;;;;;;;8.95;5.53;;;14.40;72.20;;;;;;5091638;28;20039;-78
2022/03/30 05:01:25;;;;;;;8.80;5.47;;;14.40;72.20;;;;;;5090184;28;20520;-77
2022/03/30 05:03:50;;;;;;;9.30;5.80;;;14.40;72.30;;;;;;5091479;28;20039;-76
2022/03/30 05:06:15;;;;;;;8.75;5.90;;;14.40;72.20;;;;;;5091720;28;20366;-75
2022/03/30 05:08:41;;;;;;;8.45;5.40;;;14.40;72.30;;;;;;5072444;28;20028;-76
2022/03/30 05:11:07;;;;;;;9.05;5.55;;;14.40;72.20;;;;;;5091601;28;20031;-74
2022/03/30 05:13:32;;;;;;;9.32;6.20;;;14.40;72.20;;;;;;5091482;28;20024;-78
2022/03/30 05:15:58;;;;;;;8.88;5.95;;;14.40;72.10;;;;;;5091117;28;20039;-77
2022/03/30 05:18:23;;;;;;;8.35;5.30;;;14.40;72.20;;;;;;5090460;28;20024;-76
2022/03/30 05:20:49;;;;;;;8.52;6.07;;;14.40;72.30;;;;;;5073037;28;20020;-77
2022/03/30 05:23:14;;;;;;;9.68;5.78;;;14.40;72.20;;;;;;5091138;28;20028;-73
2022/03/30 05:25:40;;;;;;;8.63;5.90;;;14.40;72.20;;;;;;5090577;28;20028;-74
2022/03/30 05:28:05;;;;;;;9.40;6.30;;;14.40;72.20;;;;;;5071867;28;20475;-75
2022/03/30 05:30:31;;;;;;;9.32;5.63;;;14.40;72.20;;;;;;5072842;28;20032;-74
2022/03/30 05:32:56;;;;;;;8.68;5.88;;;14.40;72.20;;;;;;5090363;28;20119;-72
2022/03/30 05:35:22;;;;;;;9.00;5.82;;;14.40;72.20;;;;;;5072754;28;20019;-75
2022/03/30 05:37:48;;;;;;;9.60;6.20;;;14.40;72.20;;;;;;5090163;28;20043;-77
2022/03/30 05:40:16;;;;;;;9.05;5.97;;;14.40;72.20;;;;;;5072316;28;20016;-74
2022/03/30 05:42:42;;;;;;;9.35;5.95;;;14.40;72.20;;;;;;5090890;28;20070;-73
2022/03/30 05:45:08;;;;;;;8.35;5.40;;;14.40;72.20;;;;;;5090874;28;20493;-74
2022/03/30 05:47:33;;;;;;;8.60;5.78;;;14.40;72.20;;;;;;5090058;28;20067;-74
2022/03/30 05:49:59;;;;;;;8.52;5.80;;;14.40;72.20;;;;;;5072273;28;20124;-76
2022/03/30 05:52:25;;;;;;;8.68;5.80;;;14.40;72.20;;;;;;5090066;28;20035;-75
2022/03/30 05:54:50;;;;;;;8.35;5.68;;;14.40;72.20;;;;;;5072083;28;20082;-74
2022/03/30 05:57:16;;;;;;;9.23;5.93;;;14.40;72.20;;;;;;5089818;28;20040;-74
2022/03/30 05:59:43;;;;;;;9.20;6.00;;;14.40;72.20;;;;;;5090255;28;20020;-74
2022/03/30 06:02:13;;;;;;;8.32;5.80;;;14.40;72.20;;;;;;5089924;28;20715;-73
2022/03/30 06:04:41;;;;;;;8.43;5.68;;;14.40;72.30;;;;;;5072539;28;20096;-74
2022/03/30 06:07:07;;;;;;;8.82;6.03;;;14.40;72.30;;;;;;5090728;28;20034;-74
2022/03/30 06:09:33;;;;;;;9.45;5.75;;;14.40;72.20;;;;;;5072195;28;20020;-75
2022/03/30 06:12:06;;;;;;;8.77;5.93;;;14.40;72.30;;;;;;5090550;28;20016;-74
2022/03/30 06:14:32;;;;;;;8.60;5.60;;;14.40;72.20;;;;;;5071989;28;20028;-75
2022/03/30 06:16:58;;;;;;;8.80;5.97;;;14.40;72.20;;;;;;5089926;28;20020;-73
2022/03/30 06:19:24;;;;;;;8.80;6.10;;;14.40;72.30;;;;;;5089529;28;20111;-74
2022/03/30 06:21:50;;;;;;;10.18;6.53;;;14.40;72.20;;;;;;5089552;28;20052;-76
2022/03/30 06:24:16;;;;;;;8.73;5.93;;;14.50;72.30;;;;;;5089755;28;20438;-73
2022/03/30 06:26:43;;;;;;;8.02;5.35;;;14.40;72.40;;;;;;5088902;28;20028;-75
2022/03/30 06:29:08;;;;;;;9.25;5.82;;;14.50;72.40;;;;;;5089819;28;20760;-73
2022/03/30 06:31:35;;;;;;;8.68;5.65;;;14.50;72.40;;;;;;5089997;28;20074;-74
2022/03/30 06:34:02;;;;;;;8.93;5.95;;;14.50;72.30;;;;;;5071561;28;20141;-76
2022/03/30 06:36:28;;;;;;;8.52;6.00;;;14.50;72.30;;;;;;5069099;28;20032;-75
2022/03/30 06:38:54;;;;;;;8.98;5.97;;;14.50;72.00;;;;;;5087403;28;20024;-74
2022/03/30 06:41:19;;;;;;;8.00;5.45;;;14.60;72.10;;;;;;5069186;28;20071;-75
2022/03/30 06:43:46;;;;;;;9.50;6.22;;;14.50;71.90;;;;;;5069423;28;20759;-76
2022/03/30 06:46:17;;;;;;;9.25;5.97;;;14.60;72.00;;;;;;5087414;28;20031;-76
2022/03/30 06:48:45;;;;;;;8.80;5.47;;;14.60;71.90;;;;;;5087186;28;20040;-77
2022/03/30 06:51:12;;;;;;;8.82;5.68;;;14.60;71.90;;;;;;5069424;28;20024;-77
2022/03/30 06:53:37;;;;;;;8.60;5.97;;;14.60;71.90;;;;;;5087390;28;20231;-74
2022/03/30 06:56:03;;;;;;;7.63;5.22;;;14.60;71.80;;;;;;5087856;28;20467;-74
2022/03/30 06:58:28;;;;;;;8.43;5.78;;;14.60;71.70;;;;;;5087134;28;20024;-78
2022/03/30 07:00:56;;;;;;;8.57;5.70;;;14.60;71.70;;;;;;5087997;28;20024;-75
2022/03/30 07:03:26;;;;;;;8.40;5.57;;;14.70;71.70;;;;;;5090965;28;20514;-77
2022/03/30 07:05:51;;;;;;;8.40;5.43;;;14.70;71.60;;;;;;5072779;28;20438;-75
2022/03/30 07:11:01;;;;;;;8.70;5.70;;;14.70;71.40;;;;;;5091194;28;20055;-78
2022/03/30 07:13:26;;;;;;;8.50;5.97;;;14.80;71.30;;;;;;5072470;28;20028;-74
2022/03/30 07:15:52;;;;;;;7.65;5.00;;;14.80;71.20;;;;;;5090971;28;20114;-76
2022/03/30 07:18:19;;;;;;;8.50;5.50;;;14.80;71.00;;;;;;5090204;28;20027;-74
2022/03/30 07:20:45;;;;;;;8.48;5.88;;;14.80;71.00;;;;;;5091084;28;20550;-75
2022/03/30 07:23:11;;;;;;;8.57;5.63;;;14.90;70.90;;;;;;5072516;28;20066;-74
2022/03/30 07:25:37;;;;;;;8.82;5.70;;;14.90;70.80;;;;;;5090744;28;20016;-76
2022/03/30 07:28:03;;;;;;;9.32;5.65;;;14.90;70.70;;;;;;5071989;28;20114;-75
2022/03/30 07:30:29;;;;;;;8.95;5.80;;;14.90;70.60;;;;;;5090269;28;20024;-76
2022/03/30 07:32:56;;;;;;;7.72;5.13;;;15.00;70.70;;;;;;5089634;28;20425;-75
2022/03/30 07:35:25;;;;;;;8.35;5.53;;;15.00;70.70;;;;;;5090035;28;20028;-74
2022/03/30 07:37:51;;;;;;;8.32;5.57;;;15.00;70.60;;;;;;5089916;28;20386;-74
2022/03/30 07:40:19;;;;;;;8.60;5.50;;;15.00;70.60;;;;;;5090132;28;20020;-76
2022/03/30 07:42:46;;;;;;;7.68;5.18;;;15.00;70.60;;;;;;5090376;28;20052;-75
2022/03/30 07:45:13;;;;;;;8.75;5.45;;;15.00;70.50;;;;;;5090257;28;20039;-75
2022/03/30 07:47:39;;;;;;;7.90;4.80;;;15.00;70.20;;;;;;5089850;28;20068;-75
2022/03/30 07:50:06;;;;;;;8.55;5.10;;;15.10;70.50;;;;;;5090224;28;20082;-74
2022/03/30 07:52:32;;;;;;;7.57;4.97;;;15.10;70.40;;;;;;5090066;28;20456;-75
2022/03/30 07:54:57;;;;;;;7.88;5.40;;;15.10;70.40;;;;;;5090272;28;20032;-76
2022/03/30 07:57:26;;;;;;;8.88;5.40;;;15.10;70.30;;;;;;5089686;28;20034;-74
2022/03/30 07:59:59;;;;;;;9.50;5.47;;;15.10;70.20;;;;;;5089978;28;20024;-76
2022/03/30 08:02:27;;;;;;;8.63;5.55;;;15.10;70.20;;;;;;5089822;28;20016;-74
2022/03/30 08:04:53;;;;;;;8.02;5.05;;;15.20;70.20;;;;;;5089899;28;20048;-76
2022/03/30 08:07:19;;;;;;;7.68;5.03;;;15.20;70.10;;;;;;5089223;28;20036;-75
2022/03/30 08:09:45;;;;;;;7.55;5.22;;;15.20;70.10;;;;;;5089932;28;20692;-74
2022/03/30 08:12:12;;;;;;;8.07;5.15;;;15.20;70.10;;;;;;5071266;28;20020;-74
2022/03/30 08:14:38;;;;;;;8.73;5.38;;;15.20;70.00;;;;;;5071690;28;20028;-75
2022/03/30 08:17:04;;;;;;;7.38;5.00;;;15.20;70.10;;;;;;5089199;28;20812;-77
2022/03/30 08:19:30;;;;;;;7.97;5.20;;;15.20;70.00;;;;;;5071354;28;20020;-75
2022/03/30 08:25:10;;;;;;;7.25;4.72;;;15.30;70.00;;;;;;4987642;28;20041;-75
2022/03/30 08:27:36;;;;;;;9.48;5.18;;;15.30;70.10;;;;;;4987342;28;20042;-74
2022/03/30 08:30:05;;;;;;;7.13;4.70;;;15.30;70.00;;;;;;5034084;28;20044;-75
2022/03/30 08:32:31;;;;;;;7.32;4.88;;;15.30;70.00;;;;;;5089257;28;20024;-75
2022/03/30 08:34:57;;;;;;;8.10;5.18;;;15.30;69.90;;;;;;5088960;28;20032;-74
2022/03/30 08:37:23;;;;;;;7.78;4.63;;;15.30;70.00;;;;;;5069536;28;20167;-75
2022/03/30 08:39:51;;;;;;;7.85;4.50;;;15.30;69.90;;;;;;5070942;28;20024;-75
2022/03/30 08:42:17;;;;;;;8.55;5.05;;;15.40;69.90;;;;;;5088950;28;20012;-78
2022/03/30 08:44:46;;;;;;;6.93;4.53;;;15.40;70.00;;;;;;5071028;28;20111;-74
2022/03/30 08:47:12;;;;;;;8.32;4.68;;;15.40;69.90;;;;;;5088489;28;20060;-76
2022/03/30 08:49:38;;;;;;;7.68;4.63;;;15.40;69.90;;;;;;5088989;28;20051;-75
2022/03/30 08:52:06;;;;;;;7.20;4.55;;;15.40;69.90;;;;;;5088887;28;20070;-74
2022/03/30 08:54:34;;;;;;;7.45;4.60;;;15.40;69.80;;;;;;5070544;28;20060;-75
2022/03/30 08:57:00;;;;;;;8.23;4.72;;;15.50;69.80;;;;;;5088916;28;20032;-74
2022/03/30 08:59:26;;;;;;;6.75;4.22;;;15.40;69.70;;;;;;5088654;28;20040;-74
2022/03/30 09:01:56;;;;;;;6.80;4.55;;;15.50;69.70;;;;;;5070378;28;20052;-74
2022/03/30 09:04:22;;;;;;;6.75;4.20;;;15.50;69.70;;;;;;5070458;28;20512;-74
2022/03/30 09:06:53;;;;;;;7.45;4.50;;;15.50;69.60;;;;;;5088393;28;20035;-76
2022/03/30 09:09:38;;;;;;;6.70;3.90;;;15.50;69.60;;;;;;5088486;28;20588;-78
2022/03/30 09:12:10;;;;;;;7.70;4.72;;;15.50;69.50;;;;;;5088893;28;20432;-75
2022/03/30 09:14:39;;;;;;;6.85;4.30;;;15.50;69.50;;;;;;5088689;28;20020;-75
2022/03/30 09:17:07;;;;;;;7.40;4.50;;;15.50;69.50;;;;;;5069855;28;20073;-74
2022/03/30 09:19:36;;;;;;;8.75;4.20;;;15.50;69.50;;;;;;5088297;28;20024;-76
2022/03/30 09:22:03;;;;;;;6.53;4.00;;;15.60;69.50;;;;;;5070305;28;20131;-74
2022/03/30 09:24:35;;;;;;;7.45;4.10;;;15.60;69.50;;;;;;5069833;28;20048;-74
2022/03/30 09:27:02;;;;;;;7.05;4.47;;;15.60;69.50;;;;;;5088462;28;20016;-75
2022/03/30 09:29:31;;;;;;;7.20;4.15;;;15.60;69.50;;;;;;5088319;28;20032;-74
2022/03/30 09:31:57;;;;;;;6.63;3.95;;;15.60;69.50;;;;;;5087882;28;21007;-74
2022/03/30 09:34:22;;;;;;;7.05;4.05;;;15.60;69.40;;;;;;5088327;28;20024;-75
2022/03/30 09:36:51;;;;;;;7.15;3.83;;;15.60;69.40;;;;;;5087651;28;20051;-74
2022/03/30 09:39:28;;;;;;;6.03;3.80;;;15.60;69.40;;;;;;5088177;28;20024;-77
2022/03/30 09:41:56;;;;;;;7.00;3.85;;;15.60;69.30;;;;;;5088579;28;20095;-77
2022/03/30 09:44:22;;;;;;;6.53;3.80;;;15.70;69.40;;;;;;5070240;28;20089;-76
2022/03/30 09:47:14;;;;;;;6.45;3.80;;;15.60;69.20;;;;;;5068655;28;20016;-73
2022/03/30 09:49:47;;;;;;;6.25;3.58;;;15.60;69.30;;;;;;5081184;28;20399;-75
2022/03/30 09:52:23;;;;;;;7.25;4.10;;;15.70;69.30;;;;;;5059126;28;20056;-75
2022/03/30 09:54:54;;;;;;;6.93;3.53;;;15.70;69.30;;;;;;5067987;28;20025;-75
2022/03/30 09:57:21;;;;;;;;;;;15.70;69.20;;;;;;5049796;28;20047;-79
2022/03/30 09:59:57;;;;;;;6.07;3.75;;;15.70;69.20;;;;;;5050259;28;19916;-74
2022/03/30 10:02:22;;;;;;;6.55;4.07;;;15.70;69.10;;;;;;5068070;28;20063;-73
2022/03/30 10:04:49;;;;;;;6.55;3.60;;;15.70;69.10;;;;;;5056297;28;20498;-76
2022/03/30 10:07:15;;;;;;;7.00;3.58;;;15.70;69.10;;;;;;5087824;28;20032;-77
2022/03/30 10:09:42;;;;;;;6.05;3.60;;;15.70;69.00;;;;;;5069146;28;20020;-75
2022/03/30 10:12:08;;;;;;;7.20;3.65;;;15.70;69.50;;;;;;5088431;28;20466;-73
2022/03/30 10:14:36;;;;;;;6.43;3.58;;;15.70;69.00;;;;;;5069800;28;20024;-73
2022/03/30 10:17:01;;;;;;;6.50;3.38;;;15.70;69.10;;;;;;5069507;28;20093;-72
2022/03/30 10:19:28;;;;;;;6.65;3.55;;;15.70;69.10;;;;;;5068253;28;20033;-73
2022/03/30 10:21:59;;;;;;;6.15;3.38;;;15.70;69.10;;;;;;5067497;28;20146;-74
2022/03/30 10:24:45;;;;;;;6.55;3.60;;;15.70;69.10;;;;;;5087931;28;20032;-73
2022/03/30 10:27:43;;;;;;;7.60;3.80;;;15.70;69.00;;;;;;5087177;28;20032;-75
2022/03/30 10:30:11;;;;;;;6.55;3.10;;;15.70;69.00;;;;;;5045539;28;20032;-77
2022/03/30 10:32:38;;;;;;;6.18;3.60;;;15.70;69.00;;;;;;5087927;28;20028;-74
2022/03/30 10:35:10;;;;;;;6.03;3.28;;;15.80;69.00;;;;;;5087801;28;20387;-75
2022/03/30 10:37:41;;;;;;;6.95;3.33;;;15.80;69.10;;;;;;5091026;28;20028;-74
2022/03/30 10:40:11;;;;;;;6.70;3.10;;;15.80;69.10;;;;;;5090352;28;20020;-73
2022/03/30 10:42:45;;;;;;;5.80;3.00;;;15.70;69.00;;;;;;5091792;28;20020;-75
2022/03/30 10:45:23;;;;;;;6.05;3.28;;;15.80;69.10;;;;;;5091586;28;20035;-74
2022/03/30 10:48:19;;;;;;;7.03;3.45;;;15.70;69.00;;;;;;5090995;28;20032;-73
2022/03/30 10:50:51;;;;;;;6.40;2.90;;;15.80;69.00;;;;;;5090929;28;20028;-73
2022/03/30 10:53:31;;;;;;;6.35;3.55;;;15.70;68.90;;;;;;5088318;28;20035;-74
2022/03/30 10:56:09;;;;;;;6.15;3.05;;;15.70;68.90;;;;;;5087938;28;20028;-75
2022/03/30 10:59:00;;;;;;;7.10;3.20;;;15.80;69.00;;;;;;5069860;28;20059;-74
2022/03/30 11:01:31;;;;;;;6.18;3.08;;;15.80;68.90;;;;;;5088377;28;20542;-73
2022/03/30 11:04:05;;;;;;;6.20;3.15;;;15.80;68.90;;;;;;5088521;28;20326;-74
2022/03/30 11:06:36;;;;;;;6.18;3.10;;;15.80;68.80;;;;;;5088551;28;20024;-74
2022/03/30 11:09:07;;;;;;;5.57;2.92;;;15.80;68.80;;;;;;5088456;28;20028;-74
2022/03/30 11:11:39;;;;;;;5.70;3.03;;;15.80;68.70;;;;;;5088768;28;20034;-74
2022/03/30 11:14:31;;;;;;;6.90;2.85;;;15.80;69.20;;;;;;5070099;28;20130;-74
2022/03/30 11:17:12;;;;;;;6.60;3.15;;;15.80;68.70;;;;;;5070784;28;20868;-73
2022/03/30 11:19:47;;;;;;;8.30;2.92;;;15.80;68.70;;;;;;5072285;28;20074;-75
2022/03/30 11:22:13;;;;;;;5.55;2.75;;;15.80;68.70;;;;;;5072545;28;20035;-73
2022/03/30 11:24:44;;;;;;;7.65;3.25;;;15.80;68.70;;;;;;5072481;28;20051;-73
2022/03/30 11:27:09;;;;;;;11.45;3.30;;;15.80;68.70;;;;;;5070655;28;20031;-77
2022/03/30 11:29:41;;;;;;;9.02;3.03;;;15.80;68.70;;;;;;5071639;28;20024;-74
2022/03/30 11:32:19;;;;;;;;;;;15.80;68.40;;;;;;5088650;28;20081;-74
2022/03/30 11:34:46;;;;;;;8.90;3.17;;;15.80;67.70;;;;;;5087674;28;20436;-74
2022/03/30 11:37:13;;;;;;;8.90;3.30;;;15.80;68.00;;;;;;5087316;28;20487;-74
2022/03/30 11:39:41;;;;;;;9.45;3.10;;;15.80;68.10;;;;;;5087712;28;20103;-73
2022/03/30 11:42:06;;;;;;;10.98;3.28;;;15.80;68.20;;;;;;5087543;28;20016;-74
2022/03/30 11:47:21;;;;;;;7.20;2.97;;;15.80;68.30;;;;;;5087333;28;20042;-74
2022/03/30 11:49:55;;;;;;;8.23;2.80;;;15.80;68.30;;;;;;5069159;28;20768;-73
2022/03/30 11:52:22;;;;;;;7.63;2.88;;;15.80;68.40;;;;;;5069563;28;20101;-75
2022/03/30 11:54:52;;;;;;;6.95;3.15;;;15.80;68.30;;;;;;5087452;28;20031;-73
2022/03/30 11:57:20;;;;;;;6.13;3.07;;;15.80;68.30;;;;;;5087283;28;20024;-73
2022/03/30 11:59:55;;;;;;;9.18;3.10;;;15.80;68.30;;;;;;5086890;28;20357;-75
2022/03/30 12:02:28;;;;;;;8.23;2.97;;;15.80;68.30;;;;;;5087192;28;20028;-73
2022/03/30 12:04:55;;;;;;;6.70;3.22;;;15.80;68.30;;;;;;5087127;28;20048;-77
2022/03/30 12:07:21;;;;;;;7.20;2.92;;;15.80;68.40;;;;;;5086695;28;20089;-74
2022/03/30 12:09:56;;;;;;;6.18;2.83;;;15.80;68.40;;;;;;5087327;28;20103;-74
2022/03/30 12:12:31;;;;;;;6.68;2.65;;;15.80;68.50;;;;;;5087272;28;20021;-75
2022/03/30 12:15:01;;;;;;;8.85;3.22;;;15.70;68.40;;;;;;5086868;28;20115;-74
2022/03/30 12:17:27;;;;;;;5.18;2.55;;;15.70;68.50;;;;;;5068142;28;20024;-75
2022/03/30 12:19:54;;;;;;;9.52;2.95;;;15.70;68.60;;;;;;5068808;28;20028;-75
2022/03/30 12:22:21;;;;;;;6.78;2.72;;;15.70;68.60;;;;;;5087098;28;20081;-76
2022/03/30 12:24:46;;;;;;;7.25;2.70;;;15.60;68.80;;;;;;5068963;28;20108;-75
2022/03/30 12:27:12;;;;;;;8.93;2.88;;;15.60;68.90;;;;;;5086449;28;20442;-74
2022/03/30 12:29:39;;;;;;;7.55;3.05;;;15.60;69.00;;;;;;5087019;28;20364;-78
2022/03/30 12:32:05;;;;;;;7.10;3.05;;;15.60;69.00;;;;;;5086780;28;20031;-73
2022/03/30 12:34:35;;;;;;;5.65;2.85;;;15.60;69.00;;;;;;5086737;28;20906;-75
2022/03/30 12:37:05;;;;;;;8.80;2.80;;;15.60;69.00;;;;;;5086318;28;20762;-77
2022/03/30 12:39:44;;;;;;;6.70;2.50;;;15.60;69.10;;;;;;5068202;28;20046;-74
2022/03/30 12:42:21;;;;;;;7.05;3.22;;;15.50;69.30;;;;;;5086607;28;20051;-74
2022/03/30 12:44:54;;;;;;;7.80;2.85;;;15.50;69.20;;;;;;5086831;28;20089;-75
2022/03/30 12:47:26;;;;;;;20.15;4.05;;;15.50;69.30;;;;;;5086272;28;20031;-73
2022/03/30 12:49:53;;;;;;;21.05;4.65;;;15.50;69.00;;;;;;5086639;28;20371;-74
2022/03/30 12:52:20;;;;;;;66.10;8.40;;;15.40;68.00;;;;;;5068096;28;20103;-73
2022/03/30 12:54:47;;;;;;;46.47;7.20;;;15.30;67.10;;;;;;5086932;28;20111;-76
2022/03/30 12:57:25;;;;;;;60.70;7.65;;;15.20;68.30;;;;;;5087108;28;20099;-74
2022/03/30 12:59:50;;;;;;;70.30;7.60;;;15.20;68.10;;;;;;5066158;28;20411;-72
2022/03/30 13:02:21;;;;;;;69.38;8.63;;;15.30;67.30;;;;;;5067305;28;20067;-75